Stamey Branch, North Carolina
Current Conditions -  °F | °C
As of 2:10 AM on Sunday 26 Oct 2014 (Local Time) from KTNB Reporting Station
Clear Clear  
Wind Chill: 56°   Ceiling: Unl
Heat Index: 56°   Visibility: 10mi
Dew Point: 47°   Wind: 7mph
Humidity: 72%   Direction: 270°W
Pressure: 29.99"   Gusts: NA
Location:  36.0227°N, 81.9499°W
Report Text: KTNB 260610Z AUTO 27006KT 10SM CLR 14/09 A2999 RMK AO2 T01350085
Loading
Personal Weather Stations






























Interactive Weather Map
Tropical Storm Tracking
New forecast layout! Learn more

10-Day Weather Forecast

Advertisements
Track Severe Weather on mobile